Fredonia, Pennsylvania
Current Conditions -  °F | °C
As of 2:55 PM on Thursday 30 Oct 2014 (Local Time) from KFKL Reporting Station
Overcast Overcast  
Wind Chill: 43°   Ceiling: 4500
Heat Index: 46°   Visibility: 10mi
Dew Point: 36°   Wind: 7mph
Humidity: 66%   Direction: 290°WNW
Pressure: 30.06"   Gusts: NA
Location:  41.32°N, 80.26°W
Report Text: KFKL 301855Z 29006KT 250V310 10SM OVC045 08/02 A3006 RMK AO1
Loading
Personal Weather Stations






























Interactive Weather Map
Tropical Storm Tracking
New forecast layout! Learn more

10-Day Weather Forecast

Advertisements
Track Severe Weather on mobile